NZAA/AKL METAR and TAF weather

Enter ICAO airport designator
Station Type Date Time Source
NZAA METAR 2020/09/21 08:30 UTC NOAA

NZAA 210830Z AUTO 36004KT 9999 NCD 11/09 Q1028 NOSIG


Station Type Date Time Source
NZAA Decoded METAR 2020/09/21 08:30 UTC NOAA

Auckland Airport, New Zealand (NZAA) 37-01S 174-48E 6M
Sep 21, 2020 - 04:30 AM EDT / 2020.09.21 0830 UTC
Wind: from the N (360 degrees) at 5 MPH (4 KT):0
Visibility: greater than 7 mile(s):0
Temperature: 51 F (11 C)
Dew Point: 48 F (9 C)
Relative Humidity: 87%
Pressure (altimeter): 30.36 in. Hg (1028 hPa)
ob: NZAA 210830Z AUTO 36004KT 9999 NCD 11/09 Q1028 NOSIG
cycle: 8

Station Type Date Time Source
NZAA TAF 2020/09/21 06:17 UTC NOAA

TAF NZAA 210502Z 2106/2206 03010KT 9999 FEW040

Example: see airport list